createdAt,value
2022-12-11T00:00:58.591Z,100004.39
2022-12-11T00:04:51.631Z,100002.32
2022-12-11T00:08:42.506Z,100002.61
2022-12-11T00:12:32.899Z,99993.06
2022-12-11T00:16:26.898Z,99990.13
2022-12-11T00:20:18.117Z,99993.08
2022-12-11T00:24:08.316Z,99981.93
2022-12-11T00:27:58.816Z,99978.73
2022-12-11T00:31:49.071Z,99976.61
2022-12-11T00:35:45.149Z,99974.83
2022-12-11T00:39:35.201Z,99977.55
2022-12-11T00:43:25.952Z,99979.95
2022-12-11T00:47:16.050Z,99984.59
2022-12-11T00:51:06.960Z,99982.14
2022-12-11T00:54:57.465Z,99978.59
2022-12-11T00:58:49.405Z,99978.33
2022-12-11T01:02:39.837Z,99977.05
2022-12-11T01:06:30.517Z,99974.91
2022-12-11T01:10:24.159Z,99976.01
2022-12-11T01:14:14.695Z,99982.08
2022-12-11T01:18:05.405Z,99980.30
2022-12-11T01:21:55.810Z,99975.96
2022-12-11T01:25:46.401Z,99972.52
2022-12-11T01:29:36.919Z,99971.17
2022-12-11T01:33:28.343Z,99971.05
2022-12-11T01:37:18.644Z,99972.60
2022-12-11T01:41:09.864Z,99975.01
2022-12-11T01:45:24.709Z,99976.08
2022-12-11T01:49:21.081Z,99977.98
2022-12-11T01:53:17.012Z,99977.39
2022-12-11T01:57:10.180Z,99972.69
2022-12-11T02:01:02.496Z,99976.72
2022-12-11T02:04:52.623Z,99978.95
2022-12-11T02:08:43.080Z,99976.91
2022-12-11T02:12:51.888Z,99972.11
2022-12-11T02:17:32.768Z,99966.81
2022-12-11T02:21:28.776Z,99961.64
2022-12-11T02:25:40.582Z,99959.15
2022-12-11T02:29:39.179Z,99955.95
2022-12-11T02:33:54.079Z,99953.09
2022-12-11T02:37:48.553Z,99955.58
2022-12-11T02:41:44.069Z,99952.55
2022-12-11T02:45:36.346Z,99947.19
2022-12-11T02:49:28.357Z,99947.21
2022-12-11T02:53:22.638Z,99944.25
2022-12-11T02:57:36.090Z,99944.89
2022-12-11T03:01:27.503Z,99943.05
2022-12-11T03:05:18.021Z,99947.29
2022-12-11T03:09:08.423Z,99951.52
2022-12-11T03:13:00.471Z,99950.39
2022-12-11T03:17:38.789Z,99954.01
2022-12-11T03:21:47.418Z,99953.45
2022-12-11T03:25:53.487Z,99957.60
2022-12-11T03:29:54.114Z,99953.78
2022-12-11T03:33:48.164Z,99956.75
2022-12-11T03:37:41.594Z,99963.67
2022-12-11T03:41:34.368Z,99961.66
2022-12-11T03:45:25.771Z,99969.67
2022-12-11T03:49:19.962Z,99966.48
2022-12-11T03:53:10.774Z,99961.16
2022-12-11T03:57:04.350Z,99956.38
2022-12-11T04:00:54.751Z,99958.27
2022-12-11T04:04:45.360Z,99952.62
2022-12-11T04:08:35.556Z,99946.67
2022-12-11T04:12:25.855Z,99945.51
2022-12-11T04:16:15.871Z,99941.85
2022-12-11T04:20:25.808Z,99944.55
2022-12-11T04:24:16.192Z,99949.94
2022-12-11T04:28:06.342Z,99942.38
2022-12-11T04:32:14.537Z,99935.23
2022-12-11T04:36:08.159Z,99932.91
2022-12-11T04:39:59.019Z,99926.30
2022-12-11T04:43:49.005Z,99913.19
2022-12-11T04:47:45.348Z,99914.41
2022-12-11T04:51:35.543Z,99912.14
2022-12-11T04:55:25.945Z,99907.42
2022-12-11T04:59:16.449Z,99913.36
2022-12-11T05:03:07.033Z,99909.80
2022-12-11T05:06:57.662Z,99901.41
2022-12-11T05:10:59.641Z,99898.89
2022-12-11T05:14:54.748Z,99893.45
2022-12-11T05:18:45.037Z,99895.98
2022-12-11T05:22:35.453Z,99888.90
2022-12-11T05:26:25.545Z,99884.15
2022-12-11T05:30:15.741Z,99878.75
2022-12-11T05:34:06.144Z,99863.43
2022-12-11T05:37:56.512Z,99863.52
2022-12-11T05:41:47.049Z,99866.23
2022-12-11T05:45:37.250Z,99876.57
2022-12-11T05:49:31.054Z,99878.69
2022-12-11T05:53:21.739Z,99878.81
2022-12-11T05:57:11.935Z,99874.34
2022-12-11T06:01:03.257Z,99883.49
2022-12-11T06:04:53.761Z,99880.81
2022-12-11T06:08:44.265Z,99886.02
2022-12-11T06:12:34.361Z,99881.39
2022-12-11T06:16:25.540Z,99879.55
2022-12-11T06:20:15.983Z,99874.27
2022-12-11T06:24:07.104Z,99874.41
2022-12-11T06:27:59.152Z,99875.52
2022-12-11T06:31:49.300Z,99872.41
2022-12-11T06:35:42.466Z,99870.23
2022-12-11T06:39:34.684Z,99875.67
2022-12-11T06:43:26.102Z,99873.63
2022-12-11T06:47:16.478Z,99869.51
2022-12-11T06:51:12.628Z,99870.45
2022-12-11T06:55:03.336Z,99873.56
2022-12-11T06:58:54.067Z,99871.77
2022-12-11T07:02:44.126Z,99867.55
2022-12-11T07:06:34.424Z,99877.02
2022-12-11T07:10:24.934Z,99867.77
2022-12-11T07:14:15.393Z,99872.92
2022-12-11T07:18:05.937Z,99874.89
2022-12-11T07:21:56.441Z,99876.52
2022-12-11T07:25:46.744Z,99874.55
2022-12-11T07:29:37.553Z,99882.62
2022-12-11T07:33:27.958Z,99896.84
2022-12-11T07:37:18.563Z,99904.67
2022-12-11T07:41:12.147Z,99901.51
2022-12-11T07:45:02.748Z,99894.47
2022-12-11T07:48:53.407Z,99895.09
2022-12-11T07:52:43.656Z,99893.34
2022-12-11T07:56:35.485Z,99900.04
2022-12-11T08:00:25.823Z,99900.27
2022-12-11T08:04:16.289Z,99903.77
2022-12-11T08:08:06.433Z,99908.52
2022-12-11T08:11:56.887Z,99909.96
2022-12-11T08:15:47.395Z,99903.46
2022-12-11T08:19:37.795Z,99893.07
2022-12-11T08:23:27.890Z,99893.24
2022-12-11T08:27:18.499Z,99893.99
2022-12-11T08:31:11.804Z,99890.17
2022-12-11T08:35:02.282Z,99883.36
2022-12-11T08:38:54.981Z,99864.77
2022-12-11T08:42:45.428Z,99863.43
2022-12-11T08:46:36.170Z,99865.13
2022-12-11T08:50:26.847Z,99871.89
2022-12-11T08:54:17.248Z,99877.56
2022-12-11T08:58:07.448Z,99877.50
2022-12-11T09:01:57.846Z,99878.34
2022-12-11T09:05:48.697Z,99882.05
2022-12-11T09:09:39.487Z,99879.67
2022-12-11T09:13:34.627Z,99882.39
2022-12-11T09:17:27.670Z,99878.73
2022-12-11T09:21:21.230Z,99873.84
2022-12-11T09:25:12.097Z,99868.18
2022-12-11T09:29:05.142Z,99858.35
2022-12-11T09:32:56.734Z,99855.58
2022-12-11T09:36:48.799Z,99859.72
2022-12-11T09:40:51.076Z,99852.02
2022-12-11T09:44:48.824Z,99850.31
2022-12-11T09:48:42.228Z,99851.71
2022-12-11T09:52:42.429Z,99844.34
2022-12-11T09:56:45.938Z,99838.21
2022-12-11T10:00:49.314Z,99837.80
2022-12-11T10:05:04.531Z,99832.08
2022-12-11T10:09:01.279Z,99825.34
2022-12-11T10:13:31.104Z,99818.32
2022-12-11T10:17:28.682Z,99804.14
2022-12-11T10:21:20.918Z,99800.41
2022-12-11T10:25:25.742Z,99799.59
2022-12-11T10:29:16.571Z,99794.70
2022-12-11T10:33:34.929Z,99793.36
2022-12-11T10:37:25.535Z,99788.63
2022-12-11T10:41:22.203Z,99782.30
2022-12-11T10:45:16.379Z,99773.09
2022-12-11T10:49:07.390Z,99769.05
2022-12-11T10:52:58.510Z,99764.88
2022-12-11T10:56:49.833Z,99761.95
2022-12-11T11:00:42.041Z,99752.96
2022-12-11T11:04:38.173Z,99745.90
2022-12-11T11:08:37.627Z,99744.97
2022-12-11T11:12:28.645Z,99735.71
2022-12-11T11:16:22.077Z,99730.84
2022-12-11T11:20:19.507Z,99724.73
2022-12-11T11:24:28.934Z,99720.57
2022-12-11T11:29:05.562Z,99721.40
2022-12-11T11:32:15.880Z,99717.02
2022-12-11T11:36:08.244Z,99713.99
2022-12-11T11:40:08.380Z,99710.50
2022-12-11T11:44:03.359Z,99712.42
2022-12-11T11:48:20.392Z,99712.64
2022-12-11T11:52:30.966Z,99708.83
2022-12-11T11:56:27.020Z,99708.48
2022-12-11T12:00:33.854Z,99713.27
2022-12-11T12:04:38.465Z,99701.14
2022-12-11T12:08:54.733Z,99696.63
2022-12-11T12:12:56.705Z,99695.45
2022-12-11T12:17:12.335Z,99691.84
2022-12-11T12:21:30.963Z,99681.73
2022-12-11T12:25:45.633Z,99686.33
2022-12-11T12:29:47.912Z,99682.35
2022-12-11T12:34:02.419Z,99679.10
2022-12-11T12:38:31.385Z,99681.59
2022-12-11T12:42:29.467Z,99677.76
2022-12-11T12:46:29.085Z,99668.05
2022-12-11T12:50:23.683Z,99662.35
2022-12-11T12:54:17.822Z,99659.55
2022-12-11T12:58:45.143Z,99662.16
2022-12-11T13:02:39.695Z,99663.71
2022-12-11T13:06:36.597Z,99662.20
2022-12-11T13:10:45.634Z,99656.60
2022-12-11T13:14:06.647Z,99663.14
2022-12-11T13:17:57.152Z,99661.98
2022-12-11T13:22:15.509Z,99665.50
2022-12-11T13:26:06.245Z,99663.73
2022-12-11T13:30:17.253Z,99660.25
2022-12-11T13:34:16.619Z,99667.05
2022-12-11T13:38:16.854Z,99665.73
2022-12-11T13:42:25.888Z,99658.46
2022-12-11T13:46:27.164Z,99652.20
2022-12-11T13:50:28.604Z,99649.05
2022-12-11T13:54:20.542Z,99654.86
2022-12-11T13:58:19.557Z,99651.86
2022-12-11T14:02:33.396Z,99648.99
2022-12-11T14:06:33.447Z,99647.26
2022-12-11T14:10:28.178Z,99646.65
2022-12-11T14:14:36.103Z,99645.48
2022-12-11T14:18:30.956Z,99642.84
2022-12-11T14:22:31.034Z,99647.02
2022-12-11T14:26:30.334Z,99642.27
2022-12-11T14:30:47.902Z,99639.00
2022-12-11T14:34:48.184Z,99643.50
2022-12-11T14:38:49.816Z,99645.29
2022-12-11T14:42:57.055Z,99646.16
2022-12-11T14:47:04.971Z,99641.42
2022-12-11T14:50:58.965Z,99642.05
2022-12-11T14:55:08.177Z,99645.36
2022-12-11T14:59:19.889Z,99645.64
2022-12-11T15:03:37.682Z,99644.84
2022-12-11T15:06:58.092Z,99640.77
2022-12-11T15:11:12.864Z,99636.79
2022-12-11T15:15:07.734Z,99636.41
2022-12-11T15:18:59.257Z,99638.14
2022-12-11T15:22:51.990Z,99639.88
2022-12-11T15:26:51.006Z,99634.67
2022-12-11T15:30:43.696Z,99636.77
2022-12-11T15:35:25.976Z,99628.09
2022-12-11T15:39:17.786Z,99627.52
2022-12-11T15:43:09.042Z,99629.15
2022-12-11T15:46:59.473Z,99628.41
2022-12-11T15:50:50.025Z,99630.64
2022-12-11T15:54:40.723Z,99629.52
2022-12-11T15:58:31.637Z,99628.48
2022-12-11T16:02:24.476Z,99629.14
2022-12-11T16:06:15.308Z,99632.59
2022-12-11T16:10:07.689Z,99632.61
2022-12-11T16:13:59.187Z,99629.95
2022-12-11T16:17:49.387Z,99628.46
2022-12-11T16:21:41.217Z,99624.29
2022-12-11T16:25:32.968Z,99620.66
2022-12-11T16:29:24.480Z,99616.20
2022-12-11T16:33:14.911Z,99614.42
2022-12-11T16:37:11.742Z,99615.98
2022-12-11T16:41:02.339Z,99612.13
2022-12-11T16:44:53.154Z,99611.22
2022-12-11T16:48:46.011Z,99616.36
2022-12-11T16:52:36.868Z,99623.73
2022-12-11T16:56:27.433Z,99619.98
2022-12-11T17:00:18.245Z,99620.14
2022-12-11T17:04:09.973Z,99624.98
2022-12-11T17:08:00.438Z,99627.61
2022-12-11T17:11:53.664Z,99631.94
2022-12-11T17:15:44.720Z,99625.99
2022-12-11T17:19:36.265Z,99623.98
2022-12-11T17:23:26.870Z,99617.02
2022-12-11T17:27:18.015Z,99620.17
2022-12-11T17:31:15.955Z,99621.34
2022-12-11T17:35:06.806Z,99627.77
2022-12-11T17:38:57.926Z,99625.01
2022-12-11T17:42:49.044Z,99622.73
2022-12-11T17:46:39.184Z,99627.98
2022-12-11T17:50:29.651Z,99627.73
2022-12-11T17:54:20.456Z,99629.44
2022-12-11T17:58:21.848Z,99635.32
2022-12-11T18:02:11.962Z,99637.61
2022-12-11T18:06:06.766Z,99638.95
2022-12-11T18:09:59.411Z,99642.60
2022-12-11T18:13:53.554Z,99641.02
2022-12-11T18:18:23.522Z,99643.95
2022-12-11T18:21:27.711Z,99643.11
2022-12-11T18:25:19.035Z,99645.36
2022-12-11T18:29:09.739Z,99641.55
2022-12-11T18:33:00.039Z,99639.21
2022-12-11T18:36:50.338Z,99638.98
2022-12-11T18:40:40.331Z,99640.50
2022-12-11T18:44:32.064Z,99637.39
2022-12-11T18:48:24.210Z,99639.52
2022-12-11T18:52:14.749Z,99641.73
2022-12-11T18:56:07.953Z,99641.54
2022-12-11T19:00:02.485Z,99636.77
2022-12-11T19:04:02.719Z,99635.52
2022-12-11T19:07:55.851Z,99636.27
2022-12-11T19:11:47.634Z,99637.53
2022-12-11T19:15:40.914Z,99631.43
2022-12-11T19:19:31.613Z,99630.30
2022-12-11T19:23:23.172Z,99630.30
2022-12-11T19:27:14.008Z,99626.39
2022-12-11T19:31:10.046Z,99625.10
2022-12-11T19:35:00.773Z,99625.86
2022-12-11T19:38:54.369Z,99625.98
2022-12-11T19:42:47.414Z,99628.90
2022-12-11T19:46:38.561Z,99627.21
2022-12-11T19:50:28.932Z,99624.54
2022-12-11T19:54:20.163Z,99623.95
2022-12-11T19:58:14.550Z,99627.70
2022-12-11T20:02:05.310Z,99625.90
2022-12-11T20:06:04.137Z,99626.11
2022-12-11T20:09:54.563Z,99627.20
2022-12-11T20:13:46.095Z,99624.52
2022-12-11T20:17:38.113Z,99623.64
2022-12-11T20:21:28.841Z,99625.90
2022-12-11T20:25:19.417Z,99622.52
2022-12-11T20:29:09.642Z,99618.03
2022-12-11T20:33:00.456Z,99613.78
2022-12-11T20:36:52.190Z,99616.45
2022-12-11T20:40:46.380Z,99609.29
2022-12-11T20:44:37.504Z,99606.45
2022-12-11T20:48:28.513Z,99604.88
2022-12-11T20:52:20.042Z,99607.80
2022-12-11T20:56:13.960Z,99608.88
2022-12-11T21:00:23.373Z,99604.87
2022-12-11T21:04:01.285Z,99607.47
2022-12-11T21:07:19.736Z,99605.16
2022-12-11T21:11:10.679Z,99601.39
2022-12-11T21:15:01.051Z,99599.23
2022-12-11T21:18:52.169Z,99596.36
2022-12-11T21:22:43.904Z,99594.57
2022-12-11T21:26:34.510Z,99596.56
2022-12-11T21:30:43.752Z,99598.22
2022-12-11T21:34:03.234Z,99596.00
2022-12-11T21:38:20.481Z,99597.01
2022-12-11T21:41:43.228Z,99597.80
2022-12-11T21:45:59.378Z,99601.42
2022-12-11T21:49:22.072Z,99597.19
2022-12-11T21:53:19.162Z,99598.08
2022-12-11T21:57:39.572Z,99599.43
2022-12-11T22:00:59.075Z,99598.34
2022-12-11T22:05:10.582Z,99597.38
2022-12-11T22:09:23.541Z,99593.98
2022-12-11T22:13:14.252Z,99594.18
2022-12-11T22:17:08.856Z,99591.84
2022-12-11T22:20:59.878Z,99587.91
2022-12-11T22:24:50.884Z,99586.64
2022-12-11T22:28:40.977Z,99585.01
2022-12-11T22:32:31.278Z,99579.73
2022-12-11T22:36:23.521Z,99581.46
2022-12-11T22:40:13.616Z,99581.34
2022-12-11T22:44:04.020Z,99582.11
2022-12-11T22:47:54.319Z,99583.73
2022-12-11T22:52:04.073Z,99588.73
2022-12-11T22:55:22.124Z,99589.10
2022-12-11T22:59:12.724Z,99590.47
2022-12-11T23:03:04.046Z,99585.35
2022-12-11T23:06:54.654Z,99585.23
2022-12-11T23:10:44.952Z,99589.20
2022-12-11T23:14:35.354Z,99588.60
2022-12-11T23:18:25.392Z,99588.75
2022-12-11T23:22:16.159Z,99586.70
2022-12-11T23:26:09.430Z,99583.90
2022-12-11T23:29:59.524Z,99586.67
2022-12-11T23:33:52.113Z,99585.06
2022-12-11T23:37:42.342Z,99588.36
2022-12-11T23:41:33.001Z,99592.48
2022-12-11T23:45:23.280Z,99585.65
2022-12-11T23:49:13.580Z,99586.70
2022-12-11T23:53:05.826Z,99588.27
2022-12-11T23:56:56.126Z,99590.93
